sensor_id;sensor_type;location;lat;lon;timestamp;P1;durP1;ratioP1;P2;durP2;ratioP2
59052;SDS011;44843;44.728;10.396;2023-04-29T00:02:24;6.50;;;3.80;;
59052;SDS011;44843;44.728;10.396;2023-04-29T00:04:50;5.25;;;3.90;;
59052;SDS011;44843;44.728;10.396;2023-04-29T00:07:15;4.90;;;3.85;;
59052;SDS011;44843;44.728;10.396;2023-04-29T00:09:41;8.18;;;3.80;;
59052;SDS011;44843;44.728;10.396;2023-04-29T00:12:06;8.82;;;3.63;;
59052;SDS011;44843;44.728;10.396;2023-04-29T00:14:31;5.60;;;2.92;;
59052;SDS011;44843;44.728;10.396;2023-04-29T00:16:57;5.60;;;3.10;;
59052;SDS011;44843;44.728;10.396;2023-04-29T00:19:22;4.70;;;3.08;;
59052;SDS011;44843;44.728;10.396;2023-04-29T00:21:48;4.32;;;2.80;;
59052;SDS011;44843;44.728;10.396;2023-04-29T00:24:13;7.25;;;3.22;;
59052;SDS011;44843;44.728;10.396;2023-04-29T00:26:38;6.97;;;2.78;;
59052;SDS011;44843;44.728;10.396;2023-04-29T00:29:05;7.03;;;3.25;;
59052;SDS011;44843;44.728;10.396;2023-04-29T00:31:30;4.43;;;3.05;;
59052;SDS011;44843;44.728;10.396;2023-04-29T00:33:56;7.25;;;2.95;;
59052;SDS011;44843;44.728;10.396;2023-04-29T00:36:22;4.35;;;2.72;;
59052;SDS011;44843;44.728;10.396;2023-04-29T00:38:47;5.07;;;2.78;;
59052;SDS011;44843;44.728;10.396;2023-04-29T00:41:13;8.35;;;2.92;;
59052;SDS011;44843;44.728;10.396;2023-04-29T00:43:39;9.32;;;3.00;;
59052;SDS011;44843;44.728;10.396;2023-04-29T00:46:04;6.75;;;2.90;;
59052;SDS011;44843;44.728;10.396;2023-04-29T00:48:30;5.50;;;3.10;;
59052;SDS011;44843;44.728;10.396;2023-04-29T00:50:56;5.03;;;2.67;;
59052;SDS011;44843;44.728;10.396;2023-04-29T00:53:22;8.52;;;2.92;;
59052;SDS011;44843;44.728;10.396;2023-04-29T00:55:48;8.73;;;4.07;;
59052;SDS011;44843;44.728;10.396;2023-04-29T00:58:16;5.53;;;2.92;;
59052;SDS011;44843;44.728;10.396;2023-04-29T01:00:42;7.88;;;3.03;;
59052;SDS011;44843;44.728;10.396;2023-04-29T01:03:08;3.80;;;2.92;;
59052;SDS011;44843;44.728;10.396;2023-04-29T01:05:34;5.38;;;3.10;;
59052;SDS011;44843;44.728;10.396;2023-04-29T01:08:15;7.55;;;3.42;;
59052;SDS011;44843;44.728;10.396;2023-04-29T01:10:53;6.50;;;2.75;;
59052;SDS011;44843;44.728;10.396;2023-04-29T01:13:29;10.18;;;3.63;;
59052;SDS011;44843;44.728;10.396;2023-04-29T01:16:28;4.47;;;3.00;;
59052;SDS011;44843;44.728;10.396;2023-04-29T01:18:58;4.40;;;3.03;;
59052;SDS011;44843;44.728;10.396;2023-04-29T01:21:31;5.95;;;3.47;;
59052;SDS011;44843;44.728;10.396;2023-04-29T01:23:56;5.35;;;3.30;;
59052;SDS011;44843;44.728;10.396;2023-04-29T01:26:22;6.32;;;3.28;;
59052;SDS011;44843;44.728;10.396;2023-04-29T01:29:01;8.07;;;3.35;;
59052;SDS011;44843;44.728;10.396;2023-04-29T01:32:05;3.75;;;3.08;;
59052;SDS011;44843;44.728;10.396;2023-04-29T01:37:48;6.40;;;3.60;;
59052;SDS011;44843;44.728;10.396;2023-04-29T01:40:24;5.07;;;3.70;;
59052;SDS011;44843;44.728;10.396;2023-04-29T01:42:58;9.45;;;4.18;;
59052;SDS011;44843;44.728;10.396;2023-04-29T01:45:25;6.88;;;4.47;;
59052;SDS011;44843;44.728;10.396;2023-04-29T01:47:52;5.70;;;3.70;;
59052;SDS011;44843;44.728;10.396;2023-04-29T01:50:20;10.32;;;4.63;;
59052;SDS011;44843;44.728;10.396;2023-04-29T01:52:45;10.20;;;4.53;;
59052;SDS011;44843;44.728;10.396;2023-04-29T01:55:11;7.03;;;3.88;;
59052;SDS011;44843;44.728;10.396;2023-04-29T01:57:36;8.63;;;5.32;;
59052;SDS011;44843;44.728;10.396;2023-04-29T02:00:01;6.05;;;4.15;;
59052;SDS011;44843;44.728;10.396;2023-04-29T02:02:27;5.25;;;3.97;;
59052;SDS011;44843;44.728;10.396;2023-04-29T02:04:52;10.35;;;4.10;;
59052;SDS011;44843;44.728;10.396;2023-04-29T02:07:18;9.30;;;4.30;;
59052;SDS011;44843;44.728;10.396;2023-04-29T02:09:43;7.38;;;3.85;;
59052;SDS011;44843;44.728;10.396;2023-04-29T02:12:09;7.55;;;4.32;;
59052;SDS011;44843;44.728;10.396;2023-04-29T02:14:34;9.35;;;4.10;;
59052;SDS011;44843;44.728;10.396;2023-04-29T02:17:00;6.47;;;4.10;;
59052;SDS011;44843;44.728;10.396;2023-04-29T02:19:25;6.80;;;3.95;;
59052;SDS011;44843;44.728;10.396;2023-04-29T02:21:50;6.82;;;4.20;;
59052;SDS011;44843;44.728;10.396;2023-04-29T02:24:16;9.55;;;3.95;;
59052;SDS011;44843;44.728;10.396;2023-04-29T02:26:41;6.00;;;4.20;;
59052;SDS011;44843;44.728;10.396;2023-04-29T02:29:07;4.75;;;3.65;;
59052;SDS011;44843;44.728;10.396;2023-04-29T02:31:32;6.35;;;3.47;;
59052;SDS011;44843;44.728;10.396;2023-04-29T02:33:57;6.53;;;4.10;;
59052;SDS011;44843;44.728;10.396;2023-04-29T02:36:24;6.72;;;4.32;;
59052;SDS011;44843;44.728;10.396;2023-04-29T02:38:49;4.85;;;3.47;;
59052;SDS011;44843;44.728;10.396;2023-04-29T02:41:15;4.60;;;3.47;;
59052;SDS011;44843;44.728;10.396;2023-04-29T02:43:42;5.18;;;3.55;;
59052;SDS011;44843;44.728;10.396;2023-04-29T02:46:08;6.72;;;4.00;;
59052;SDS011;44843;44.728;10.396;2023-04-29T02:48:34;7.85;;;3.63;;
59052;SDS011;44843;44.728;10.396;2023-04-29T02:50:59;6.07;;;4.10;;
59052;SDS011;44843;44.728;10.396;2023-04-29T02:53:24;8.85;;;4.03;;
59052;SDS011;44843;44.728;10.396;2023-04-29T02:55:50;8.13;;;4.00;;
59052;SDS011;44843;44.728;10.396;2023-04-29T02:58:15;6.88;;;4.00;;
59052;SDS011;44843;44.728;10.396;2023-04-29T03:00:40;6.20;;;4.00;;
59052;SDS011;44843;44.728;10.396;2023-04-29T03:03:06;5.13;;;3.72;;
59052;SDS011;44843;44.728;10.396;2023-04-29T03:05:31;6.47;;;4.68;;
59052;SDS011;44843;44.728;10.396;2023-04-29T03:07:57;8.20;;;4.43;;
59052;SDS011;44843;44.728;10.396;2023-04-29T03:10:22;5.78;;;4.20;;
59052;SDS011;44843;44.728;10.396;2023-04-29T03:12:48;6.13;;;3.85;;
59052;SDS011;44843;44.728;10.396;2023-04-29T03:15:13;5.00;;;3.95;;
59052;SDS011;44843;44.728;10.396;2023-04-29T03:17:39;5.82;;;4.10;;
59052;SDS011;44843;44.728;10.396;2023-04-29T03:20:05;6.57;;;4.05;;
59052;SDS011;44843;44.728;10.396;2023-04-29T03:22:31;6.65;;;3.72;;
59052;SDS011;44843;44.728;10.396;2023-04-29T03:24:57;6.28;;;3.70;;
59052;SDS011;44843;44.728;10.396;2023-04-29T03:27:22;4.07;;;3.50;;
59052;SDS011;44843;44.728;10.396;2023-04-29T03:29:48;5.75;;;3.22;;
59052;SDS011;44843;44.728;10.396;2023-04-29T03:32:13;6.38;;;3.67;;
59052;SDS011;44843;44.728;10.396;2023-04-29T03:34:39;5.22;;;3.72;;
59052;SDS011;44843;44.728;10.396;2023-04-29T03:37:04;5.15;;;3.42;;
59052;SDS011;44843;44.728;10.396;2023-04-29T03:39:30;7.70;;;3.38;;
59052;SDS011;44843;44.728;10.396;2023-04-29T03:41:56;4.00;;;3.33;;
59052;SDS011;44843;44.728;10.396;2023-04-29T03:44:23;6.07;;;3.35;;
59052;SDS011;44843;44.728;10.396;2023-04-29T03:46:49;5.55;;;3.72;;
59052;SDS011;44843;44.728;10.396;2023-04-29T03:49:14;5.55;;;3.35;;
59052;SDS011;44843;44.728;10.396;2023-04-29T03:51:40;6.07;;;3.80;;
59052;SDS011;44843;44.728;10.396;2023-04-29T03:54:05;5.40;;;3.47;;
59052;SDS011;44843;44.728;10.396;2023-04-29T03:56:31;4.68;;;3.40;;
59052;SDS011;44843;44.728;10.396;2023-04-29T03:58:56;4.32;;;3.47;;
59052;SDS011;44843;44.728;10.396;2023-04-29T04:01:22;8.20;;;3.42;;
59052;SDS011;44843;44.728;10.396;2023-04-29T04:03:47;4.55;;;3.03;;
59052;SDS011;44843;44.728;10.396;2023-04-29T04:06:13;5.05;;;3.50;;
59052;SDS011;44843;44.728;10.396;2023-04-29T04:08:38;5.63;;;3.15;;
59052;SDS011;44843;44.728;10.396;2023-04-29T04:11:05;3.78;;;3.10;;
59052;SDS011;44843;44.728;10.396;2023-04-29T04:13:31;6.53;;;3.20;;
59052;SDS011;44843;44.728;10.396;2023-04-29T04:15:56;6.65;;;3.42;;
59052;SDS011;44843;44.728;10.396;2023-04-29T04:18:22;4.97;;;3.28;;
59052;SDS011;44843;44.728;10.396;2023-04-29T04:20:47;7.40;;;3.95;;
59052;SDS011;44843;44.728;10.396;2023-04-29T04:23:13;5.57;;;3.45;;
59052;SDS011;44843;44.728;10.396;2023-04-29T04:25:45;4.40;;;2.92;;
59052;SDS011;44843;44.728;10.396;2023-04-29T04:28:11;4.47;;;2.97;;
59052;SDS011;44843;44.728;10.396;2023-04-29T04:30:37;4.53;;;3.00;;
59052;SDS011;44843;44.728;10.396;2023-04-29T04:33:02;3.97;;;3.13;;
59052;SDS011;44843;44.728;10.396;2023-04-29T04:35:28;4.72;;;3.20;;
59052;SDS011;44843;44.728;10.396;2023-04-29T04:37:53;5.32;;;3.63;;
59052;SDS011;44843;44.728;10.396;2023-04-29T04:40:19;4.53;;;3.22;;
59052;SDS011;44843;44.728;10.396;2023-04-29T04:42:44;2.97;;;2.50;;
59052;SDS011;44843;44.728;10.396;2023-04-29T04:45:10;6.30;;;3.40;;
59052;SDS011;44843;44.728;10.396;2023-04-29T04:47:36;5.30;;;2.97;;
59052;SDS011;44843;44.728;10.396;2023-04-29T04:50:02;7.25;;;4.18;;
59052;SDS011;44843;44.728;10.396;2023-04-29T04:52:28;5.65;;;3.58;;
59052;SDS011;44843;44.728;10.396;2023-04-29T04:54:53;8.13;;;3.80;;
59052;SDS011;44843;44.728;10.396;2023-04-29T04:57:19;5.15;;;3.15;;
59052;SDS011;44843;44.728;10.396;2023-04-29T04:59:44;7.72;;;3.35;;
59052;SDS011;44843;44.728;10.396;2023-04-29T05:02:10;4.57;;;3.35;;
59052;SDS011;44843;44.728;10.396;2023-04-29T05:04:35;8.18;;;3.42;;
59052;SDS011;44843;44.728;10.396;2023-04-29T05:07:01;6.22;;;3.50;;
59052;SDS011;44843;44.728;10.396;2023-04-29T05:09:26;4.43;;;2.88;;
59052;SDS011;44843;44.728;10.396;2023-04-29T05:11:52;4.95;;;3.08;;
59052;SDS011;44843;44.728;10.396;2023-04-29T05:14:18;5.40;;;3.20;;
59052;SDS011;44843;44.728;10.396;2023-04-29T05:16:43;6.68;;;3.25;;
59052;SDS011;44843;44.728;10.396;2023-04-29T05:19:10;5.15;;;3.22;;
59052;SDS011;44843;44.728;10.396;2023-04-29T05:21:36;6.45;;;3.10;;
59052;SDS011;44843;44.728;10.396;2023-04-29T05:24:01;5.20;;;3.20;;
59052;SDS011;44843;44.728;10.396;2023-04-29T05:26:27;3.58;;;3.05;;
59052;SDS011;44843;44.728;10.396;2023-04-29T05:28:52;4.97;;;3.17;;
59052;SDS011;44843;44.728;10.396;2023-04-29T05:31:18;3.63;;;2.85;;
59052;SDS011;44843;44.728;10.396;2023-04-29T05:33:45;9.35;;;3.50;;
59052;SDS011;44843;44.728;10.396;2023-04-29T05:36:10;6.80;;;3.35;;
59052;SDS011;44843;44.728;10.396;2023-04-29T05:38:35;7.00;;;3.35;;
59052;SDS011;44843;44.728;10.396;2023-04-29T05:41:01;7.32;;;3.22;;
59052;SDS011;44843;44.728;10.396;2023-04-29T05:43:28;9.23;;;3.83;;
59052;SDS011;44843;44.728;10.396;2023-04-29T05:45:53;4.78;;;3.17;;
59052;SDS011;44843;44.728;10.396;2023-04-29T05:48:19;7.07;;;3.10;;
59052;SDS011;44843;44.728;10.396;2023-04-29T05:50:44;7.57;;;3.28;;
59052;SDS011;44843;44.728;10.396;2023-04-29T05:53:11;9.00;;;3.63;;
59052;SDS011;44843;44.728;10.396;2023-04-29T05:55:36;4.28;;;3.13;;
59052;SDS011;44843;44.728;10.396;2023-04-29T05:58:03;6.70;;;3.05;;
59052;SDS011;44843;44.728;10.396;2023-04-29T06:00:29;5.20;;;3.08;;
59052;SDS011;44843;44.728;10.396;2023-04-29T06:02:55;4.60;;;3.22;;
59052;SDS011;44843;44.728;10.396;2023-04-29T06:05:21;5.97;;;3.13;;
59052;SDS011;44843;44.728;10.396;2023-04-29T06:07:47;5.68;;;3.60;;
59052;SDS011;44843;44.728;10.396;2023-04-29T06:10:12;4.07;;;3.38;;
59052;SDS011;44843;44.728;10.396;2023-04-29T06:12:37;6.57;;;3.42;;
59052;SDS011;44843;44.728;10.396;2023-04-29T06:15:03;5.03;;;3.55;;
59052;SDS011;44843;44.728;10.396;2023-04-29T06:17:28;6.05;;;3.67;;
59052;SDS011;44843;44.728;10.396;2023-04-29T06:19:54;5.25;;;3.50;;
59052;SDS011;44843;44.728;10.396;2023-04-29T06:22:20;5.03;;;3.55;;
59052;SDS011;44843;44.728;10.396;2023-04-29T06:24:46;4.88;;;3.70;;
59052;SDS011;44843;44.728;10.396;2023-04-29T06:27:13;5.15;;;3.70;;
59052;SDS011;44843;44.728;10.396;2023-04-29T06:29:39;4.45;;;3.40;;
59052;SDS011;44843;44.728;10.396;2023-04-29T06:32:05;8.57;;;4.07;;
59052;SDS011;44843;44.728;10.396;2023-04-29T06:34:30;9.02;;;3.63;;
59052;SDS011;44843;44.728;10.396;2023-04-29T06:36:56;7.00;;;3.58;;
59052;SDS011;44843;44.728;10.396;2023-04-29T06:39:21;5.20;;;3.85;;
59052;SDS011;44843;44.728;10.396;2023-04-29T06:41:47;6.78;;;3.83;;
59052;SDS011;44843;44.728;10.396;2023-04-29T06:44:12;7.15;;;3.90;;
59052;SDS011;44843;44.728;10.396;2023-04-29T06:46:37;6.00;;;3.97;;
59052;SDS011;44843;44.728;10.396;2023-04-29T06:49:03;7.05;;;4.22;;
59052;SDS011;44843;44.728;10.396;2023-04-29T06:51:28;8.18;;;3.90;;
59052;SDS011;44843;44.728;10.396;2023-04-29T06:53:56;5.30;;;3.70;;
59052;SDS011;44843;44.728;10.396;2023-04-29T06:56:21;6.10;;;3.67;;
59052;SDS011;44843;44.728;10.396;2023-04-29T06:58:47;8.18;;;4.13;;
59052;SDS011;44843;44.728;10.396;2023-04-29T07:01:13;7.35;;;4.13;;
59052;SDS011;44843;44.728;10.396;2023-04-29T07:03:38;12.30;;;4.40;;
59052;SDS011;44843;44.728;10.396;2023-04-29T07:06:04;6.35;;;3.78;;
59052;SDS011;44843;44.728;10.396;2023-04-29T07:08:30;7.75;;;4.90;;
59052;SDS011;44843;44.728;10.396;2023-04-29T07:10:56;9.75;;;5.93;;
59052;SDS011;44843;44.728;10.396;2023-04-29T07:13:22;11.20;;;6.18;;
59052;SDS011;44843;44.728;10.396;2023-04-29T07:15:48;16.33;;;7.45;;
59052;SDS011;44843;44.728;10.396;2023-04-29T07:18:14;12.43;;;8.00;;
59052;SDS011;44843;44.728;10.396;2023-04-29T07:20:39;13.27;;;7.85;;
59052;SDS011;44843;44.728;10.396;2023-04-29T07:23:05;16.13;;;8.40;;
59052;SDS011;44843;44.728;10.396;2023-04-29T07:25:30;14.88;;;8.70;;
59052;SDS011;44843;44.728;10.396;2023-04-29T07:27:56;18.38;;;8.45;;
59052;SDS011;44843;44.728;10.396;2023-04-29T07:30:21;16.77;;;9.40;;
59052;SDS011;44843;44.728;10.396;2023-04-29T07:32:47;16.95;;;9.40;;
59052;SDS011;44843;44.728;10.396;2023-04-29T07:35:13;13.48;;;8.52;;
59052;SDS011;44843;44.728;10.396;2023-04-29T07:37:38;15.02;;;9.85;;
59052;SDS011;44843;44.728;10.396;2023-04-29T07:40:03;12.85;;;8.35;;
59052;SDS011;44843;44.728;10.396;2023-04-29T07:42:29;13.23;;;9.23;;
59052;SDS011;44843;44.728;10.396;2023-04-29T07:44:55;14.82;;;8.73;;
59052;SDS011;44843;44.728;10.396;2023-04-29T07:47:20;16.50;;;10.18;;
59052;SDS011;44843;44.728;10.396;2023-04-29T07:49:46;15.95;;;9.57;;
59052;SDS011;44843;44.728;10.396;2023-04-29T07:52:11;17.70;;;9.43;;
59052;SDS011;44843;44.728;10.396;2023-04-29T07:54:36;17.25;;;10.75;;
59052;SDS011;44843;44.728;10.396;2023-04-29T07:57:02;16.17;;;9.45;;
59052;SDS011;44843;44.728;10.396;2023-04-29T07:59:29;14.82;;;10.48;;
59052;SDS011;44843;44.728;10.396;2023-04-29T08:01:57;15.63;;;10.05;;
59052;SDS011;44843;44.728;10.396;2023-04-29T08:04:22;19.20;;;10.35;;
59052;SDS011;44843;44.728;10.396;2023-04-29T08:06:48;17.85;;;10.95;;
59052;SDS011;44843;44.728;10.396;2023-04-29T08:09:14;19.02;;;11.57;;
59052;SDS011;44843;44.728;10.396;2023-04-29T08:11:40;24.73;;;11.40;;
59052;SDS011;44843;44.728;10.396;2023-04-29T08:14:06;19.85;;;11.93;;
59052;SDS011;44843;44.728;10.396;2023-04-29T08:16:31;22.30;;;11.73;;
59052;SDS011;44843;44.728;10.396;2023-04-29T08:18:57;17.17;;;11.10;;
59052;SDS011;44843;44.728;10.396;2023-04-29T08:21:22;15.18;;;11.48;;
59052;SDS011;44843;44.728;10.396;2023-04-29T08:23:48;15.70;;;10.52;;
59052;SDS011;44843;44.728;10.396;2023-04-29T08:26:13;17.30;;;10.80;;
59052;SDS011;44843;44.728;10.396;2023-04-29T08:28:38;16.85;;;10.07;;
59052;SDS011;44843;44.728;10.396;2023-04-29T08:31:04;16.27;;;11.38;;
59052;SDS011;44843;44.728;10.396;2023-04-29T08:33:34;19.10;;;11.70;;
59052;SDS011;44843;44.728;10.396;2023-04-29T08:36:00;16.20;;;10.15;;
59052;SDS011;44843;44.728;10.396;2023-04-29T08:38:27;17.23;;;11.07;;
59052;SDS011;44843;44.728;10.396;2023-04-29T08:40:56;16.48;;;10.63;;
59052;SDS011;44843;44.728;10.396;2023-04-29T08:43:21;21.55;;;11.32;;
59052;SDS011;44843;44.728;10.396;2023-04-29T08:45:47;20.17;;;12.90;;
59052;SDS011;44843;44.728;10.396;2023-04-29T08:48:14;16.27;;;10.75;;
59052;SDS011;44843;44.728;10.396;2023-04-29T08:50:41;20.27;;;10.20;;
59052;SDS011;44843;44.728;10.396;2023-04-29T08:53:07;13.60;;;9.85;;
59052;SDS011;44843;44.728;10.396;2023-04-29T08:55:43;16.55;;;10.35;;
59052;SDS011;44843;44.728;10.396;2023-04-29T08:58:11;18.05;;;11.13;;
59052;SDS011;44843;44.728;10.396;2023-04-29T09:00:37;16.15;;;10.80;;
59052;SDS011;44843;44.728;10.396;2023-04-29T09:03:18;22.20;;;11.00;;
59052;SDS011;44843;44.728;10.396;2023-04-29T09:05:50;16.73;;;11.00;;
59052;SDS011;44843;44.728;10.396;2023-04-29T09:08:23;17.55;;;10.63;;
59052;SDS011;44843;44.728;10.396;2023-04-29T09:10:50;18.75;;;11.50;;
59052;SDS011;44843;44.728;10.396;2023-04-29T09:13:23;19.85;;;10.90;;
59052;SDS011;44843;44.728;10.396;2023-04-29T09:15:52;23.48;;;11.23;;
59052;SDS011;44843;44.728;10.396;2023-04-29T09:21:15;20.02;;;10.82;;
59052;SDS011;44843;44.728;10.396;2023-04-29T09:23:40;17.45;;;10.55;;
59052;SDS011;44843;44.728;10.396;2023-04-29T09:26:06;18.15;;;10.85;;
59052;SDS011;44843;44.728;10.396;2023-04-29T09:28:32;16.00;;;10.52;;
59052;SDS011;44843;44.728;10.396;2023-04-29T09:30:57;15.95;;;10.60;;
59052;SDS011;44843;44.728;10.396;2023-04-29T09:33:23;17.50;;;10.90;;
59052;SDS011;44843;44.728;10.396;2023-04-29T09:35:52;24.75;;;11.18;;
59052;SDS011;44843;44.728;10.396;2023-04-29T09:38:18;19.15;;;11.98;;
59052;SDS011;44843;44.728;10.396;2023-04-29T09:40:43;17.45;;;11.38;;
59052;SDS011;44843;44.728;10.396;2023-04-29T09:43:15;17.75;;;11.20;;
59052;SDS011;44843;44.728;10.396;2023-04-29T09:45:45;18.33;;;11.55;;
59052;SDS011;44843;44.728;10.396;2023-04-29T09:48:12;24.88;;;13.02;;
59052;SDS011;44843;44.728;10.396;2023-04-29T09:50:39;16.98;;;11.18;;
59052;SDS011;44843;44.728;10.396;2023-04-29T09:53:06;18.35;;;11.25;;
59052;SDS011;44843;44.728;10.396;2023-04-29T09:55:37;18.55;;;11.52;;
59052;SDS011;44843;44.728;10.396;2023-04-29T09:58:29;18.13;;;11.18;;
59052;SDS011;44843;44.728;10.396;2023-04-29T10:01:01;19.17;;;11.35;;
59052;SDS011;44843;44.728;10.396;2023-04-29T10:03:31;19.08;;;11.35;;
59052;SDS011;44843;44.728;10.396;2023-04-29T10:06:01;21.02;;;11.85;;
59052;SDS011;44843;44.728;10.396;2023-04-29T10:08:28;18.67;;;12.02;;
59052;SDS011;44843;44.728;10.396;2023-04-29T10:10:56;23.20;;;13.10;;
59052;SDS011;44843;44.728;10.396;2023-04-29T10:13:24;20.98;;;11.85;;
59052;SDS011;44843;44.728;10.396;2023-04-29T10:16:03;20.85;;;12.45;;
59052;SDS011;44843;44.728;10.396;2023-04-29T10:18:35;18.60;;;12.88;;
59052;SDS011;44843;44.728;10.396;2023-04-29T10:21:01;16.02;;;10.45;;
59052;SDS011;44843;44.728;10.396;2023-04-29T10:23:28;23.38;;;13.05;;
59052;SDS011;44843;44.728;10.396;2023-04-29T10:25:55;19.58;;;12.52;;
59052;SDS011;44843;44.728;10.396;2023-04-29T10:28:23;19.70;;;13.13;;
59052;SDS011;44843;44.728;10.396;2023-04-29T10:30:50;19.48;;;11.98;;
59052;SDS011;44843;44.728;10.396;2023-04-29T10:33:18;20.35;;;13.02;;
59052;SDS011;44843;44.728;10.396;2023-04-29T10:35:47;18.92;;;13.05;;
59052;SDS011;44843;44.728;10.396;2023-04-29T10:40:57;20.90;;;13.27;;
59052;SDS011;44843;44.728;10.396;2023-04-29T10:43:27;19.98;;;13.05;;
59052;SDS011;44843;44.728;10.396;2023-04-29T10:48:47;25.77;;;13.23;;
59052;SDS011;44843;44.728;10.396;2023-04-29T10:51:47;21.15;;;13.15;;
59052;SDS011;44843;44.728;10.396;2023-04-29T10:54:12;23.35;;;14.18;;
59052;SDS011;44843;44.728;10.396;2023-04-29T10:56:38;19.77;;;13.30;;
59052;SDS011;44843;44.728;10.396;2023-04-29T10:59:08;23.65;;;13.45;;
59052;SDS011;44843;44.728;10.396;2023-04-29T11:01:44;20.63;;;13.20;;
59052;SDS011;44843;44.728;10.396;2023-04-29T11:04:12;19.13;;;14.15;;
59052;SDS011;44843;44.728;10.396;2023-04-29T11:06:39;20.77;;;13.43;;
59052;SDS011;44843;44.728;10.396;2023-04-29T11:09:07;19.90;;;12.98;;
59052;SDS011;44843;44.728;10.396;2023-04-29T11:14:09;19.23;;;12.32;;
59052;SDS011;44843;44.728;10.396;2023-04-29T11:16:36;20.38;;;13.48;;
59052;SDS011;44843;44.728;10.396;2023-04-29T11:19:06;21.55;;;14.43;;
59052;SDS011;44843;44.728;10.396;2023-04-29T11:21:34;23.67;;;13.98;;
59052;SDS011;44843;44.728;10.396;2023-04-29T11:24:00;19.20;;;13.13;;
59052;SDS011;44843;44.728;10.396;2023-04-29T11:26:27;23.13;;;13.65;;
59052;SDS011;44843;44.728;10.396;2023-04-29T11:28:53;20.90;;;13.20;;
59052;SDS011;44843;44.728;10.396;2023-04-29T11:31:18;22.90;;;14.10;;
59052;SDS011;44843;44.728;10.396;2023-04-29T11:33:43;18.17;;;13.48;;
59052;SDS011;44843;44.728;10.396;2023-04-29T11:36:10;19.33;;;13.10;;
59052;SDS011;44843;44.728;10.396;2023-04-29T11:38:38;23.98;;;13.75;;
59052;SDS011;44843;44.728;10.396;2023-04-29T11:41:05;21.75;;;13.93;;
59052;SDS011;44843;44.728;10.396;2023-04-29T11:43:30;20.50;;;12.98;;
59052;SDS011;44843;44.728;10.396;2023-04-29T11:45:56;22.08;;;11.70;;
59052;SDS011;44843;44.728;10.396;2023-04-29T11:48:22;15.68;;;11.07;;
59052;SDS011;44843;44.728;10.396;2023-04-29T11:50:51;19.55;;;12.88;;
59052;SDS011;44843;44.728;10.396;2023-04-29T11:53:19;15.88;;;12.23;;
59052;SDS011;44843;44.728;10.396;2023-04-29T11:55:46;20.70;;;12.77;;
59052;SDS011;44843;44.728;10.396;2023-04-29T11:58:13;16.83;;;11.70;;
59052;SDS011;44843;44.728;10.396;2023-04-29T12:00:39;17.33;;;11.93;;
59052;SDS011;44843;44.728;10.396;2023-04-29T12:03:14;16.42;;;11.75;;
59052;SDS011;44843;44.728;10.396;2023-04-29T12:05:52;17.75;;;11.80;;
59052;SDS011;44843;44.728;10.396;2023-04-29T12:08:22;19.23;;;12.85;;
59052;SDS011;44843;44.728;10.396;2023-04-29T12:10:48;20.50;;;13.68;;
59052;SDS011;44843;44.728;10.396;2023-04-29T12:13:15;20.00;;;13.50;;
59052;SDS011;44843;44.728;10.396;2023-04-29T12:15:42;23.40;;;13.48;;
59052;SDS011;44843;44.728;10.396;2023-04-29T12:18:12;20.98;;;13.45;;
59052;SDS011;44843;44.728;10.396;2023-04-29T12:20:38;21.30;;;14.25;;
59052;SDS011;44843;44.728;10.396;2023-04-29T12:25:37;21.15;;;15.25;;
59052;SDS011;44843;44.728;10.396;2023-04-29T12:28:02;20.25;;;14.38;;
59052;SDS011;44843;44.728;10.396;2023-04-29T12:30:28;20.85;;;15.18;;
59052;SDS011;44843;44.728;10.396;2023-04-29T12:32:54;22.00;;;14.93;;
59052;SDS011;44843;44.728;10.396;2023-04-29T12:35:19;21.38;;;14.52;;
59052;SDS011;44843;44.728;10.396;2023-04-29T12:37:49;21.33;;;14.18;;
59052;SDS011;44843;44.728;10.396;2023-04-29T12:40:15;20.27;;;14.20;;
59052;SDS011;44843;44.728;10.396;2023-04-29T12:42:41;21.83;;;14.98;;
59052;SDS011;44843;44.728;10.396;2023-04-29T12:45:09;22.52;;;13.85;;
59052;SDS011;44843;44.728;10.396;2023-04-29T12:47:50;22.05;;;13.32;;
59052;SDS011;44843;44.728;10.396;2023-04-29T12:50:16;16.13;;;11.90;;
59052;SDS011;44843;44.728;10.396;2023-04-29T12:52:41;13.07;;;10.52;;
59052;SDS011;44843;44.728;10.396;2023-04-29T12:55:06;16.85;;;10.50;;
59052;SDS011;44843;44.728;10.396;2023-04-29T12:57:32;13.95;;;10.35;;
59052;SDS011;44843;44.728;10.396;2023-04-29T12:59:58;16.63;;;10.52;;
59052;SDS011;44843;44.728;10.396;2023-04-29T13:02:23;16.40;;;10.98;;
59052;SDS011;44843;44.728;10.396;2023-04-29T13:04:49;14.02;;;10.82;;
59052;SDS011;44843;44.728;10.396;2023-04-29T13:07:14;15.18;;;10.60;;
59052;SDS011;44843;44.728;10.396;2023-04-29T13:09:39;19.50;;;10.13;;
59052;SDS011;44843;44.728;10.396;2023-04-29T13:12:05;15.15;;;9.57;;
59052;SDS011;44843;44.728;10.396;2023-04-29T13:14:32;10.57;;;7.03;;
59052;SDS011;44843;44.728;10.396;2023-04-29T13:16:57;13.93;;;8.90;;
59052;SDS011;44843;44.728;10.396;2023-04-29T13:19:23;10.45;;;7.80;;
59052;SDS011;44843;44.728;10.396;2023-04-29T13:21:48;9.65;;;6.40;;
59052;SDS011;44843;44.728;10.396;2023-04-29T13:24:14;12.82;;;9.20;;
59052;SDS011;44843;44.728;10.396;2023-04-29T13:26:42;12.40;;;8.80;;
59052;SDS011;44843;44.728;10.396;2023-04-29T13:29:07;12.38;;;8.88;;
59052;SDS011;44843;44.728;10.396;2023-04-29T13:31:33;14.63;;;8.15;;
59052;SDS011;44843;44.728;10.396;2023-04-29T13:33:58;13.73;;;9.95;;
59052;SDS011;44843;44.728;10.396;2023-04-29T13:36:24;13.35;;;8.05;;
59052;SDS011;44843;44.728;10.396;2023-04-29T13:38:52;11.15;;;7.18;;
59052;SDS011;44843;44.728;10.396;2023-04-29T13:41:17;12.70;;;8.25;;
59052;SDS011;44843;44.728;10.396;2023-04-29T13:43:42;14.32;;;8.57;;
59052;SDS011;44843;44.728;10.396;2023-04-29T13:46:08;12.13;;;9.20;;
59052;SDS011;44843;44.728;10.396;2023-04-29T13:48:33;17.65;;;9.77;;
59052;SDS011;44843;44.728;10.396;2023-04-29T13:50:59;15.43;;;9.10;;
59052;SDS011;44843;44.728;10.396;2023-04-29T13:53:24;14.82;;;9.40;;
59052;SDS011;44843;44.728;10.396;2023-04-29T13:55:50;13.48;;;8.70;;
59052;SDS011;44843;44.728;10.396;2023-04-29T13:58:15;17.38;;;10.48;;
59052;SDS011;44843;44.728;10.396;2023-04-29T14:00:41;17.05;;;9.73;;
59052;SDS011;44843;44.728;10.396;2023-04-29T14:03:06;13.07;;;8.52;;
59052;SDS011;44843;44.728;10.396;2023-04-29T14:05:32;16.70;;;9.27;;
59052;SDS011;44843;44.728;10.396;2023-04-29T14:07:58;15.30;;;9.20;;
59052;SDS011;44843;44.728;10.396;2023-04-29T14:10:23;15.50;;;9.55;;
59052;SDS011;44843;44.728;10.396;2023-04-29T14:12:49;15.40;;;8.90;;
59052;SDS011;44843;44.728;10.396;2023-04-29T14:15:14;14.75;;;9.38;;
59052;SDS011;44843;44.728;10.396;2023-04-29T14:17:40;9.93;;;8.85;;
59052;SDS011;44843;44.728;10.396;2023-04-29T14:20:05;11.93;;;7.78;;
59052;SDS011;44843;44.728;10.396;2023-04-29T14:22:31;12.68;;;9.30;;
59052;SDS011;44843;44.728;10.396;2023-04-29T14:24:57;11.38;;;8.57;;
59052;SDS011;44843;44.728;10.396;2023-04-29T14:27:22;13.18;;;9.30;;
59052;SDS011;44843;44.728;10.396;2023-04-29T14:29:47;11.60;;;8.30;;
59052;SDS011;44843;44.728;10.396;2023-04-29T14:32:13;13.32;;;8.38;;
59052;SDS011;44843;44.728;10.396;2023-04-29T14:34:38;11.45;;;8.00;;
59052;SDS011;44843;44.728;10.396;2023-04-29T14:37:04;9.50;;;6.63;;
59052;SDS011;44843;44.728;10.396;2023-04-29T14:39:29;9.25;;;7.05;;